Thalassa — FNFP — position and weather

sailwx.info

Track history (hours):
 
Tides and Currents Weather Stations Pressure Air Temp Water Temp Dewpoint Dewpoint Depression Visibility Wind Speed Wind Dir Waves Ship Positions

Oceanographic research ship Thalassa (France & Spain)

Detailed information on ship capabilities available from University of Delaware's Ocean Information Center.

Last reported at 2014-Oct-30 18:31 UTC. Time now 2014-Oct-30 18:58 UTC.
Position N 47°44' W 003°21'.

Length 74 m; beam 15 m.

Type: . MMSI: 227297000.

Date/timePositionNaut miles runAvg speedWind from/ knotsBaromVisibWave heightAir tempDewpointWater temp
2014-Oct-30 18:31N 47°44' W 003°21'0 0.0
2014-Oct-30 17:31N 47°44' W 003°21'0 0.0
2014-Oct-30 16:31N 47°44' W 003°21'2 2.0
2014-Oct-30 15:33N 47°42' W 003°22'8 8.2
2014-Oct-30 14:33N 47°40' W 003°33'3 3.1
2014-Oct-30 13:33N 47°37' W 003°37'7 5.4
2014-Oct-30 12:19N 47°32' W 003°43'8 8.9
2014-Oct-30 11:26N 47°26' W 003°50'3 1.3
2014-Oct-30 09:17N 47°23' W 003°49'1211.5
2014-Oct-30 08:15N 47°19' W 003°32'5 4.5
2014-Oct-30 07:15N 47°16' W 003°27'3 3.8
2014-Oct-30 06:33N 47°14' W 003°28'1 1.0
2014-Oct-30 05:10N 47°15' W 003°28'19 5.1
2014-Oct-30 01:26N 46°58' W 003°16'7 7.6
2014-Oct-30 00:30N 46°51' W 003°12'7 7.7
2014-Oct-29 23:33N 46°45' W 003°07'8 7.7
2014-Oct-29 22:33N 46°38' W 003°02'7 6.9
2014-Oct-29 21:32N 46°31' W 002°58'2 1.9
2014-Oct-29 20:33N 46°29' W 002°59'1 0.6
2014-Oct-29 19:31N 46°29' W 002°58'0 0.3
2014-Oct-29 18:33N 46°29' W 002°58'1211.5
2014-Oct-29 17:32N 46°25' W 002°42'7 7.4
2014-Oct-29 16:33N 46°22' W 002°33'1 0.5
2014-Oct-29 15:29N 46°23' W 002°33'4 3.9
2014-Oct-29 14:32N 46°19' W 002°31'6 6.0
2014-Oct-29 13:33N 46°24' W 002°28'1212.0
2014-Oct-29 12:33N 46°30' W 002°12'1010.3
2014-Oct-29 11:33N 46°35' W 001°59'4 3.9
2014-Oct-29 10:33N 46°37' W 002°04'7 7.3
2014-Oct-29 09:33N 46°32' W 001°57'1211.9
2014-Oct-29 08:33N 46°23' W 001°45'1111.1
2014-Oct-29 07:33N 46°18' W 001°31'3 3.0
2014-Oct-29 06:26N 46°16' W 001°27'1 0.7
2014-Oct-29 05:33N 46°17' W 001°27'6 5.9
2014-Oct-29 04:33N 46°19' W 001°35'6 6.4
2014-Oct-29 03:33N 46°21' W 001°44'4 4.2
2014-Oct-29 02:33N 46°20' W 001°50'4 4.4
2014-Oct-29 01:33N 46°16' W 001°52'9 4.2
2014-Oct-28 23:26N 46°08' W 001°56'5 3.8
2014-Oct-28 22:08N 46°03' W 001°57'3 3.8
2014-Oct-28 21:20N 45°60' W 001°59'4 3.8
2014-Oct-28 20:16N 45°56' W 002°00'1 1.9
2014-Oct-28 19:32N 45°56' W 002°02'0 0.3
2014-Oct-28 18:33N 45°56' W 002°02'1 0.8
2014-Oct-28 17:30N 45°56' W 002°01'0 0.4
2014-Oct-28 16:33N 45°56' W 002°00'1 0.5
2014-Oct-28 14:26N 45°57' W 001°59'7 3.2
2014-Oct-28 12:09N 46°03' W 002°03'28 5.9
2014-Oct-28 07:26N 45°55' W 002°42'4 3.4
2014-Oct-28 06:08N 45°60' W 002°42'0 0.4
2014-Oct-28 05:29N 45°60' W 002°42'1 1.2
2014-Oct-28 04:30N 46°01' W 002°43'7 2.9
2014-Oct-28 02:12N 45°55' W 002°39'2 2.5
2014-Oct-28 01:33N 45°54' W 002°37'3 2.6
2014-Oct-28 00:33N 45°54' W 002°33'3 3.1
2014-Oct-27 23:33N 45°53' W 002°29'3 3.1
2014-Oct-27 22:33N 45°53' W 002°25'2 2.0
2014-Oct-27 21:26N 45°50' W 002°24'0 0.3
2014-Oct-27 20:30N 45°50' W 002°24'45 7.5
2014-Oct-27 14:29N 45°25' W 001°30'6 6.7
2014-Oct-27 13:33N 45°20' W 001°34'10 8.6
2014-Oct-27 12:25N 45°10' W 001°40'6 7.0
2014-Oct-27 11:33N 45°05' W 001°42'4 4.0
2014-Oct-27 10:33N 45°03' W 001°47'7 7.1
2014-Oct-27 09:33N 45°04' W 001°57'6 5.7
2014-Oct-27 08:33N 44°58' W 001°57'1111.4
2014-Oct-27 07:33N 44°47' W 001°57'3 3.3
2014-Oct-27 06:33N 44°46' W 002°01'1 1.1
2014-Oct-27 05:33N 44°45' W 002°02'1 1.2
2014-Oct-27 04:33N 44°46' W 002°03'1 0.4
2014-Oct-27 03:10N 44°46' W 002°02'0 0.4
2014-Oct-27 02:33N 44°46' W 002°02'1 0.8
2014-Oct-27 01:33N 44°46' W 002°03'1 0.6
2014-Oct-27 00:33N 44°46' W 002°02'2 2.5
2014-Oct-26 23:33N 44°46' W 001°59'0 0.5
2014-Oct-26 22:33N 44°46' W 001°59'1 1.1
2014-Oct-26 21:31N 44°46' W 001°57'1 0.5
2014-Oct-26 20:33N 44°46' W 001°58'8 6.1
2014-Oct-26 19:12N 44°43' W 001°47'812.3
2014-Oct-26 18:33N 44°39' W 001°38'1212.0
2014-Oct-26 17:33N 44°33' W 001°23'3 3.0
2014-Oct-26 16:33N 44°32' W 001°19'1 0.9
2014-Oct-26 15:33N 44°31' W 001°18'2 2.4
2014-Oct-26 14:33N 44°33' W 001°20'6 6.4
2014-Oct-26 13:33N 44°27' W 001°18'48 2.6
2014-Oct-25 19:17N 43°42' W 001°42'3 4.4
2014-Oct-25 18:31N 43°42' W 001°37'0 0.2
2014-Oct-25 17:32N 43°42' W 001°37'4 3.5
2014-Oct-25 16:27N 43°42' W 001°43'1011.4
2014-Oct-25 15:32N 43°53' W 001°43'2 2.1
2014-Oct-25 14:33N 43°55' W 001°44'10 8.0
2014-Oct-25 13:18N 43°52' W 001°57'6 1.5
2014-Oct-25 09:13N 43°55' W 002°05'1 0.8
2014-Oct-25 08:28N 43°56' W 002°05'4 4.6
2014-Oct-25 07:32N 43°58' W 002°10'3 3.0
2014-Oct-25 06:31N 44°01' W 002°09'2 2.4
2014-Oct-25 05:33N 44°04' W 002°09'1 0.6
2014-Oct-25 04:33N 44°03' W 002°09'4 4.3
2014-Oct-25 03:34N 43°59' W 002°09'1 0.6
2014-Oct-25 02:33N 43°59' W 002°09'4 3.6
2014-Oct-25 01:20N 43°55' W 002°11'3 4.0
2014-Oct-25 00:32N 43°52' W 002°11'4 3.8
2014-Oct-24 23:33N 43°48' W 002°12'4 4.0
2014-Oct-24 22:33N 43°44' W 002°13'4 4.1
2014-Oct-24 21:33N 43°40' W 002°15'0 0.5
2014-Oct-24 20:33N 43°40' W 002°15'0 0.5
2014-Oct-24 19:34N 43°40' W 002°14'1111.2
2014-Oct-24 18:33N 43°29' W 002°14'3 0.7
2014-Oct-24 14:31N 43°26' W 002°12'2 2.2
2014-Oct-24 13:33N 43°26' W 002°09'4 1.9
2014-Oct-24 11:19N 43°31' W 002°09'4 5.8
2014-Oct-24 10:33N 43°31' W 002°15'3 2.5
2014-Oct-24 09:33N 43°34' W 002°14'0 0.3
2014-Oct-24 08:33N 43°34' W 002°13'3 2.6
2014-Oct-24 07:33N 43°36' W 002°15'3 3.2
2014-Oct-24 06:33N 43°36' W 002°19'2 1.8
2014-Oct-24 05:33N 43°36' W 002°22'4 2.1
2014-Oct-24 03:33N 43°36' W 002°16'4 3.3
2014-Oct-24 02:26N 43°36' W 002°11'6 5.4
2014-Oct-24 01:20N 43°42' W 002°10'4 5.3
2014-Oct-24 00:33N 43°46' W 002°09'11 5.4
2014-Oct-23 22:32N 43°57' W 002°07'7 6.9
2014-Oct-23 21:33N 44°04' W 002°06'1 1.0
2014-Oct-23 20:26N 44°04' W 002°05'1 1.2
2014-Oct-23 19:16N 44°03' W 002°06'14 2.8
2014-Oct-23 14:21N 44°12' W 001°52'27 6.8
2014-Oct-23 10:21N 44°36' W 002°10'3 2.1
2014-Oct-23 09:05N 44°34' W 002°09'3 4.3
2014-Oct-23 08:23N 44°31' W 002°07'8 4.2
2014-Oct-23 06:33N 44°38' W 002°09'1 1.0
2014-Oct-23 05:28N 44°38' W 002°10'7 3.8
2014-Oct-23 03:32N 44°37' W 002°00'139 3.1
2014-Oct-21 07:13N 46°25' W 004°06'2 2.1
2014-Oct-21 06:24N 46°26' W 004°08'  
Track history (hours):
 
Tides and Currents Weather Stations Pressure Air Temp Water Temp Dewpoint Dewpoint Depression Visibility Wind Speed Wind Dir Waves Ship Positions

Oceanographic research ship Thalassa (France & Spain)

Detailed information on ship capabilities available from University of Delaware's Ocean Information Center.

Last reported at 2014-Oct-30 18:31 UTC. Time now 2014-Oct-30 18:58 UTC.
Position N 47°44' W 003°21'.

Length 74 m; beam 15 m.

Type: . MMSI: 227297000.

Date/timePositionNaut miles runAvg speedWind from/ knotsBaromVisibWave heightAir tempDewpointWater temp
2014-Oct-30 18:31N 47°44' W 003°21'0 0.0
2014-Oct-30 17:31N 47°44' W 003°21'0 0.0
2014-Oct-30 16:31N 47°44' W 003°21'2 2.0
2014-Oct-30 15:33N 47°42' W 003°22'8 8.2
2014-Oct-30 14:33N 47°40' W 003°33'3 3.1
2014-Oct-30 13:33N 47°37' W 003°37'7 5.4
2014-Oct-30 12:19N 47°32' W 003°43'8 8.9
2014-Oct-30 11:26N 47°26' W 003°50'3 1.3
2014-Oct-30 09:17N 47°23' W 003°49'1211.5
2014-Oct-30 08:15N 47°19' W 003°32'5 4.5
2014-Oct-30 07:15N 47°16' W 003°27'3 3.8
2014-Oct-30 06:33N 47°14' W 003°28'1 1.0
2014-Oct-30 05:10N 47°15' W 003°28'19 5.1
2014-Oct-30 01:26N 46°58' W 003°16'7 7.6
2014-Oct-30 00:30N 46°51' W 003°12'7 7.7
2014-Oct-29 23:33N 46°45' W 003°07'8 7.7
2014-Oct-29 22:33N 46°38' W 003°02'7 6.9
2014-Oct-29 21:32N 46°31' W 002°58'2 1.9
2014-Oct-29 20:33N 46°29' W 002°59'1 0.6
2014-Oct-29 19:31N 46°29' W 002°58'0 0.3
2014-Oct-29 18:33N 46°29' W 002°58'1211.5
2014-Oct-29 17:32N 46°25' W 002°42'7 7.4
2014-Oct-29 16:33N 46°22' W 002°33'1 0.5
2014-Oct-29 15:29N 46°23' W 002°33'4 3.9
2014-Oct-29 14:32N 46°19' W 002°31'6 6.0
2014-Oct-29 13:33N 46°24' W 002°28'1212.0
2014-Oct-29 12:33N 46°30' W 002°12'1010.3
2014-Oct-29 11:33N 46°35' W 001°59'4 3.9
2014-Oct-29 10:33N 46°37' W 002°04'7 7.3
2014-Oct-29 09:33N 46°32' W 001°57'1211.9
2014-Oct-29 08:33N 46°23' W 001°45'1111.1
2014-Oct-29 07:33N 46°18' W 001°31'3 3.0
2014-Oct-29 06:26N 46°16' W 001°27'1 0.7
2014-Oct-29 05:33N 46°17' W 001°27'6 5.9
2014-Oct-29 04:33N 46°19' W 001°35'6 6.4
2014-Oct-29 03:33N 46°21' W 001°44'4 4.2
2014-Oct-29 02:33N 46°20' W 001°50'4 4.4
2014-Oct-29 01:33N 46°16' W 001°52'9 4.2
2014-Oct-28 23:26N 46°08' W 001°56'5 3.8
2014-Oct-28 22:08N 46°03' W 001°57'3 3.8
2014-Oct-28 21:20N 45°60' W 001°59'4 3.8
2014-Oct-28 20:16N 45°56' W 002°00'1 1.9
2014-Oct-28 19:32N 45°56' W 002°02'0 0.3
2014-Oct-28 18:33N 45°56' W 002°02'1 0.8
2014-Oct-28 17:30N 45°56' W 002°01'0 0.4
2014-Oct-28 16:33N 45°56' W 002°00'1 0.5
2014-Oct-28 14:26N 45°57' W 001°59'7 3.2
2014-Oct-28 12:09N 46°03' W 002°03'28 5.9
2014-Oct-28 07:26N 45°55' W 002°42'4 3.4
2014-Oct-28 06:08N 45°60' W 002°42'0 0.4
2014-Oct-28 05:29N 45°60' W 002°42'1 1.2
2014-Oct-28 04:30N 46°01' W 002°43'7 2.9
2014-Oct-28 02:12N 45°55' W 002°39'2 2.5
2014-Oct-28 01:33N 45°54' W 002°37'3 2.6
2014-Oct-28 00:33N 45°54' W 002°33'3 3.1
2014-Oct-27 23:33N 45°53' W 002°29'3 3.1
2014-Oct-27 22:33N 45°53' W 002°25'2 2.0
2014-Oct-27 21:26N 45°50' W 002°24'0 0.3
2014-Oct-27 20:30N 45°50' W 002°24'45 7.5
2014-Oct-27 14:29N 45°25' W 001°30'6 6.7
2014-Oct-27 13:33N 45°20' W 001°34'10 8.6
2014-Oct-27 12:25N 45°10' W 001°40'6 7.0
2014-Oct-27 11:33N 45°05' W 001°42'4 4.0
2014-Oct-27 10:33N 45°03' W 001°47'7 7.1
2014-Oct-27 09:33N 45°04' W 001°57'6 5.7
2014-Oct-27 08:33N 44°58' W 001°57'1111.4
2014-Oct-27 07:33N 44°47' W 001°57'3 3.3
2014-Oct-27 06:33N 44°46' W 002°01'1 1.1
2014-Oct-27 05:33N 44°45' W 002°02'1 1.2
2014-Oct-27 04:33N 44°46' W 002°03'1 0.4
2014-Oct-27 03:10N 44°46' W 002°02'0 0.4
2014-Oct-27 02:33N 44°46' W 002°02'1 0.8
2014-Oct-27 01:33N 44°46' W 002°03'1 0.6
2014-Oct-27 00:33N 44°46' W 002°02'2 2.5
2014-Oct-26 23:33N 44°46' W 001°59'0 0.5
2014-Oct-26 22:33N 44°46' W 001°59'1 1.1
2014-Oct-26 21:31N 44°46' W 001°57'1 0.5
2014-Oct-26 20:33N 44°46' W 001°58'8 6.1
2014-Oct-26 19:12N 44°43' W 001°47'812.3
2014-Oct-26 18:33N 44°39' W 001°38'1212.0
2014-Oct-26 17:33N 44°33' W 001°23'3 3.0
2014-Oct-26 16:33N 44°32' W 001°19'1 0.9
2014-Oct-26 15:33N 44°31' W 001°18'2 2.4
2014-Oct-26 14:33N 44°33' W 001°20'6 6.4
2014-Oct-26 13:33N 44°27' W 001°18'48 2.6
2014-Oct-25 19:17N 43°42' W 001°42'3 4.4
2014-Oct-25 18:31N 43°42' W 001°37'0 0.2
2014-Oct-25 17:32N 43°42' W 001°37'4 3.5
2014-Oct-25 16:27N 43°42' W 001°43'1011.4
2014-Oct-25 15:32N 43°53' W 001°43'2 2.1
2014-Oct-25 14:33N 43°55' W 001°44'10 8.0
2014-Oct-25 13:18N 43°52' W 001°57'6 1.5
2014-Oct-25 09:13N 43°55' W 002°05'1 0.8
2014-Oct-25 08:28N 43°56' W 002°05'4 4.6
2014-Oct-25 07:32N 43°58' W 002°10'3 3.0
2014-Oct-25 06:31N 44°01' W 002°09'2 2.4
2014-Oct-25 05:33N 44°04' W 002°09'1 0.6
2014-Oct-25 04:33N 44°03' W 002°09'4 4.3
2014-Oct-25 03:34N 43°59' W 002°09'1 0.6
2014-Oct-25 02:33N 43°59' W 002°09'4 3.6
2014-Oct-25 01:20N 43°55' W 002°11'3 4.0
2014-Oct-25 00:32N 43°52' W 002°11'4 3.8
2014-Oct-24 23:33N 43°48' W 002°12'4 4.0
2014-Oct-24 22:33N 43°44' W 002°13'4 4.1
2014-Oct-24 21:33N 43°40' W 002°15'0 0.5
2014-Oct-24 20:33N 43°40' W 002°15'0 0.5
2014-Oct-24 19:34N 43°40' W 002°14'1111.2
2014-Oct-24 18:33N 43°29' W 002°14'3 0.7
2014-Oct-24 14:31N 43°26' W 002°12'2 2.2
2014-Oct-24 13:33N 43°26' W 002°09'4 1.9
2014-Oct-24 11:19N 43°31' W 002°09'4 5.8
2014-Oct-24 10:33N 43°31' W 002°15'3 2.5
2014-Oct-24 09:33N 43°34' W 002°14'0 0.3
2014-Oct-24 08:33N 43°34' W 002°13'3 2.6
2014-Oct-24 07:33N 43°36' W 002°15'3 3.2
2014-Oct-24 06:33N 43°36' W 002°19'2 1.8
2014-Oct-24 05:33N 43°36' W 002°22'4 2.1
2014-Oct-24 03:33N 43°36' W 002°16'4 3.3
2014-Oct-24 02:26N 43°36' W 002°11'6 5.4
2014-Oct-24 01:20N 43°42' W 002°10'4 5.3
2014-Oct-24 00:33N 43°46' W 002°09'11 5.4
2014-Oct-23 22:32N 43°57' W 002°07'7 6.9
2014-Oct-23 21:33N 44°04' W 002°06'1 1.0
2014-Oct-23 20:26N 44°04' W 002°05'1 1.2
2014-Oct-23 19:16N 44°03' W 002°06'14 2.8
2014-Oct-23 14:21N 44°12' W 001°52'27 6.8
2014-Oct-23 10:21N 44°36' W 002°10'3 2.1
2014-Oct-23 09:05N 44°34' W 002°09'3 4.3
2014-Oct-23 08:23N 44°31' W 002°07'8 4.2
2014-Oct-23 06:33N 44°38' W 002°09'1 1.0
2014-Oct-23 05:28N 44°38' W 002°10'7 3.8
2014-Oct-23 03:32N 44°37' W 002°00'139 3.1
2014-Oct-21 07:13N 46°25' W 004°06'2 2.1
2014-Oct-21 06:24N 46°26' W 004°08'  

Dump ship's entire track history